Terminal Aerodrome Forecast
Issued by NWS Mt. Holly, NJ

Home | Current Version | Previous Version | Text Only | Print | Product List | Glossary On
Versions: 1 2 3 4 5 6 7 8 9 10 11 12 13 14 15 16 17 18 19 20 21
000
FTUS41 KPHI 280536
TAFPHL
TAF
KPHL 280536Z 2806/2912 19007KT P6SM FEW050
      TEMPO 2811/2813 6SM HZ
     FM281400 22010KT P6SM SCT250
     FM281800 21010G17KT P6SM FEW050
     FM290000 20006KT P6SM SKC
     FM291000 20003KT 6SM BR SKC=

USA.gov is the U.S. government's official web portal to all federal, state and local government web resources and services.